createdAt,value
2022-12-04T00:02:02.378Z,91.06
2022-12-04T00:04:35.503Z,91.04
2022-12-04T00:07:08.250Z,90.90
2022-12-04T00:09:40.693Z,91.33
2022-12-04T00:12:13.233Z,91.06
2022-12-04T00:15:23.555Z,90.81
2022-12-04T00:17:19.964Z,90.84
2022-12-04T00:19:52.804Z,91.10
2022-12-04T00:22:25.671Z,90.88
2022-12-04T00:24:58.003Z,90.73
2022-12-04T00:27:30.616Z,90.56
2022-12-04T00:30:03.058Z,90.94
2022-12-04T00:32:36.660Z,91.03
2022-12-04T00:35:10.088Z,90.88
2022-12-04T00:37:42.468Z,90.55
2022-12-04T00:40:15.420Z,90.83
2022-12-04T00:42:47.927Z,91.04
2022-12-04T00:45:20.395Z,91.24
2022-12-04T00:47:53.078Z,91.00
2022-12-04T00:50:25.520Z,90.87
2022-12-04T00:52:58.684Z,90.92
2022-12-04T00:55:31.053Z,91.44
2022-12-04T00:58:03.490Z,91.11
2022-12-04T01:00:38.018Z,91.37
2022-12-04T01:03:11.169Z,91.14
2022-12-04T01:05:46.015Z,91.30
2022-12-04T01:08:18.641Z,91.40
2022-12-04T01:11:05.978Z,91.30
2022-12-04T01:13:38.551Z,91.66
2022-12-04T01:16:12.947Z,91.40
2022-12-04T01:18:45.625Z,91.21
2022-12-04T01:21:18.818Z,90.83
2022-12-04T01:23:51.412Z,91.03
2022-12-04T01:26:23.736Z,91.18
2022-12-04T01:28:56.290Z,91.35
2022-12-04T01:31:28.786Z,91.53
2022-12-04T01:34:01.368Z,91.76
2022-12-04T01:36:33.910Z,92.36
2022-12-04T01:39:06.314Z,91.55
2022-12-04T01:41:38.736Z,91.57
2022-12-04T01:44:23.251Z,91.43
2022-12-04T01:46:58.563Z,91.96
2022-12-04T01:49:44.305Z,92.60
2022-12-04T01:52:21.553Z,92.73
2022-12-04T01:55:00.140Z,92.51
2022-12-04T01:57:33.795Z,92.53
2022-12-04T02:00:15.883Z,93.18
2022-12-04T02:02:48.865Z,93.19
2022-12-04T02:05:22.738Z,93.04
2022-12-04T02:07:59.045Z,92.63
2022-12-04T02:10:39.756Z,92.27
2022-12-04T02:13:28.790Z,92.59
2022-12-04T02:16:17.758Z,92.84
2022-12-04T02:18:55.129Z,93.37
2022-12-04T02:21:45.030Z,93.60
2022-12-04T02:24:48.285Z,93.60
2022-12-04T02:27:49.151Z,93.99
2022-12-04T02:30:22.041Z,94.52
2022-12-04T02:33:23.631Z,94.77
2022-12-04T02:36:16.251Z,94.97
2022-12-04T02:39:26.903Z,94.51
2022-12-04T02:42:19.053Z,94.98
2022-12-04T02:47:44.750Z,95.48
2022-12-04T02:50:21.319Z,95.59
2022-12-04T02:52:58.010Z,95.67
2022-12-04T02:55:38.786Z,95.29
2022-12-04T02:58:25.029Z,95.50
2022-12-04T03:00:58.646Z,95.13
2022-12-04T03:03:32.448Z,95.24
2022-12-04T03:06:09.072Z,95.75
2022-12-04T03:08:49.007Z,95.40
2022-12-04T03:11:21.784Z,95.13
2022-12-04T03:14:02.723Z,94.70
2022-12-04T03:16:40.071Z,94.67
2022-12-04T03:19:22.753Z,94.69
2022-12-04T03:22:05.871Z,95.10
2022-12-04T03:24:45.017Z,94.87
2022-12-04T03:27:40.745Z,95.21
2022-12-04T03:30:16.944Z,95.23
2022-12-04T03:33:06.512Z,95.44
2022-12-04T03:36:07.593Z,95.07
2022-12-04T03:39:08.686Z,95.47
2022-12-04T03:41:54.863Z,95.71
2022-12-04T03:44:47.858Z,95.61
2022-12-04T03:47:24.257Z,95.64
2022-12-04T03:50:16.683Z,96.04
2022-12-04T03:53:33.325Z,96.39
2022-12-04T03:56:19.446Z,96.70
2022-12-04T03:59:00.089Z,96.53
2022-12-04T04:01:38.001Z,96.53
2022-12-04T04:04:14.691Z,97.38
2022-12-04T04:06:52.179Z,97.63
2022-12-04T04:09:27.530Z,97.77
2022-12-04T04:12:09.291Z,97.51
2022-12-04T04:15:17.693Z,97.88
2022-12-04T04:18:08.311Z,98.26
2022-12-04T04:21:05.827Z,97.87
2022-12-04T04:24:02.226Z,97.91
2022-12-04T04:26:38.845Z,98.75
2022-12-04T04:29:12.009Z,98.45
2022-12-04T04:31:58.048Z,98.22
2022-12-04T04:34:56.104Z,97.67
2022-12-04T04:37:33.305Z,97.79
2022-12-04T04:40:38.232Z,97.99
2022-12-04T04:43:47.151Z,98.08
2022-12-04T04:46:26.559Z,97.63
2022-12-04T04:49:02.416Z,98.23
2022-12-04T04:51:36.633Z,98.58
2022-12-04T04:54:11.373Z,98.65
2022-12-04T04:56:45.319Z,98.54
2022-12-04T04:59:18.256Z,98.86
2022-12-04T05:01:50.818Z,98.81
2022-12-04T05:04:23.992Z,99.07
2022-12-04T05:06:56.619Z,99.46
2022-12-04T05:09:29.146Z,99.24
2022-12-04T05:12:01.588Z,99.07
2022-12-04T05:14:34.161Z,98.87
2022-12-04T05:17:12.364Z,99.15
2022-12-04T05:19:54.519Z,99.17
2022-12-04T05:22:34.023Z,98.84
2022-12-04T05:25:07.019Z,99.42
2022-12-04T05:27:39.691Z,100.00
2022-12-04T05:30:12.926Z,99.78
2022-12-04T05:32:45.457Z,99.62
2022-12-04T05:35:18.659Z,99.65
2022-12-04T05:37:51.298Z,100.00
2022-12-04T05:40:23.803Z,100.00
2022-12-04T05:42:56.232Z,100.00
2022-12-04T05:45:28.676Z,100.00
2022-12-04T05:48:00.990Z,100.00
2022-12-04T05:50:33.945Z,100.00
2022-12-04T05:53:06.422Z,100.00
2022-12-04T05:55:39.155Z,100.00
2022-12-04T05:58:11.715Z,100.00
2022-12-04T06:00:44.121Z,100.00
2022-12-04T06:03:16.727Z,100.00
2022-12-04T06:05:49.305Z,100.00
2022-12-04T06:08:21.782Z,100.00
2022-12-04T06:10:54.429Z,100.00
2022-12-04T06:13:27.080Z,100.00
2022-12-04T06:15:59.524Z,100.00
2022-12-04T06:18:32.460Z,100.00
2022-12-04T06:21:05.037Z,100.00
2022-12-04T06:23:38.308Z,100.00
2022-12-04T06:26:10.929Z,100.00
2022-12-04T06:28:43.515Z,100.00
2022-12-04T06:31:19.259Z,100.00
2022-12-04T06:33:51.811Z,100.00
2022-12-04T06:36:24.657Z,100.00
2022-12-04T06:38:57.961Z,100.00
2022-12-04T06:41:30.735Z,100.00
2022-12-04T06:44:03.209Z,100.00
2022-12-04T06:46:36.564Z,100.00
2022-12-04T06:49:10.677Z,100.00
2022-12-04T06:51:43.728Z,99.53
2022-12-04T06:54:16.787Z,99.41
2022-12-04T06:56:50.673Z,98.94
2022-12-04T06:59:23.094Z,98.92
2022-12-04T07:01:55.696Z,98.52
2022-12-04T07:04:28.189Z,98.50
2022-12-04T07:07:00.616Z,98.17
2022-12-04T07:09:34.720Z,98.12
2022-12-04T07:12:07.902Z,97.35
2022-12-04T07:14:40.763Z,97.45
2022-12-04T07:17:13.350Z,97.41
2022-12-04T07:19:45.942Z,97.46
2022-12-04T07:22:18.676Z,97.23
2022-12-04T07:24:51.742Z,97.16
2022-12-04T07:27:24.360Z,97.01
2022-12-04T07:29:56.971Z,97.14
2022-12-04T07:32:29.728Z,97.14
2022-12-04T07:35:02.868Z,96.61
2022-12-04T07:37:37.493Z,97.43
2022-12-04T07:40:11.124Z,97.73
2022-12-04T07:42:43.629Z,97.68
2022-12-04T07:45:16.003Z,97.27
2022-12-04T07:47:50.517Z,97.29
2022-12-04T07:50:23.166Z,96.96
2022-12-04T07:52:55.727Z,97.62
2022-12-04T07:55:28.458Z,98.07
2022-12-04T07:58:01.033Z,98.06
2022-12-04T08:00:34.550Z,97.99
2022-12-04T08:03:07.026Z,98.30
2022-12-04T08:05:39.884Z,98.67
2022-12-04T08:08:12.704Z,98.55
2022-12-04T08:10:45.162Z,98.21
2022-12-04T08:13:17.475Z,98.09
2022-12-04T08:15:50.008Z,98.30
2022-12-04T08:18:22.426Z,98.15
2022-12-04T08:20:55.133Z,98.10
2022-12-04T08:23:28.832Z,97.69
2022-12-04T08:26:02.597Z,97.86
2022-12-04T08:28:35.194Z,97.04
2022-12-04T08:31:10.891Z,96.57
2022-12-04T08:33:44.608Z,96.29
2022-12-04T08:36:19.227Z,96.11
2022-12-04T08:38:53.564Z,95.90
2022-12-04T08:41:26.529Z,95.80
2022-12-04T08:43:59.926Z,96.71
2022-12-04T08:46:32.596Z,96.91
2022-12-04T08:49:05.710Z,96.63
2022-12-04T08:51:39.331Z,96.54
2022-12-04T08:54:13.809Z,95.76
2022-12-04T08:56:46.257Z,95.06
2022-12-04T08:59:19.297Z,95.12
2022-12-04T09:01:52.714Z,94.96
2022-12-04T09:04:25.495Z,94.21
2022-12-04T09:06:58.040Z,94.01
2022-12-04T09:09:30.938Z,93.98
2022-12-04T09:12:03.426Z,93.61
2022-12-04T09:14:36.088Z,93.20
2022-12-04T09:17:09.444Z,93.39
2022-12-04T09:19:41.935Z,93.63
2022-12-04T09:22:14.712Z,94.11
2022-12-04T09:24:47.784Z,93.67
2022-12-04T09:27:20.216Z,91.92
2022-12-04T09:29:52.734Z,91.25
2022-12-04T09:32:25.310Z,93.01
2022-12-04T09:34:57.981Z,91.19
2022-12-04T09:37:30.661Z,90.66
2022-12-04T09:40:04.008Z,90.30
2022-12-04T09:43:10.053Z,89.07
2022-12-04T09:45:52.261Z,88.98
2022-12-04T09:48:25.638Z,89.26
2022-12-04T09:50:58.210Z,88.53
2022-12-04T09:53:35.510Z,88.40
2022-12-04T09:56:12.917Z,88.54
2022-12-04T09:59:01.709Z,87.26
2022-12-04T10:02:01.674Z,87.03
2022-12-04T10:04:34.577Z,86.82
2022-12-04T10:07:16.959Z,86.65
2022-12-04T10:10:05.645Z,86.57
2022-12-04T10:13:04.487Z,86.08
2022-12-04T10:16:00.404Z,86.15
2022-12-04T10:18:53.453Z,85.29
2022-12-04T10:21:39.512Z,84.87
2022-12-04T10:24:45.425Z,83.56
2022-12-04T10:27:43.549Z,80.96
2022-12-04T10:30:36.999Z,78.29
2022-12-04T10:33:23.409Z,76.01
2022-12-04T10:35:56.348Z,72.86
2022-12-04T10:38:36.984Z,69.82
2022-12-04T10:41:38.071Z,66.94
2022-12-04T10:44:16.897Z,63.53
2022-12-04T10:46:49.380Z,60.35
2022-12-04T10:49:44.603Z,58.10
2022-12-04T10:52:17.848Z,56.90
2022-12-04T10:55:09.581Z,55.68
2022-12-04T10:57:47.485Z,54.14
2022-12-04T11:00:36.188Z,53.35
2022-12-04T11:03:14.158Z,51.24
2022-12-04T11:05:56.676Z,51.59
2022-12-04T11:08:42.504Z,49.65
2022-12-04T11:11:15.235Z,49.22
2022-12-04T11:13:47.700Z,49.03
2022-12-04T11:16:43.563Z,48.24
2022-12-04T11:19:25.661Z,48.03
2022-12-04T11:22:08.115Z,48.28
2022-12-04T11:24:43.413Z,49.00
2022-12-04T11:27:44.287Z,49.68
2022-12-04T11:30:23.825Z,49.47
2022-12-04T11:32:57.126Z,49.83
2022-12-04T11:35:30.554Z,50.90
2022-12-04T11:38:17.901Z,51.30
2022-12-04T11:40:56.220Z,53.24
2022-12-04T11:43:30.682Z,54.60
2022-12-04T11:46:07.737Z,55.10
2022-12-04T11:48:46.194Z,55.39
2022-12-04T11:51:44.620Z,56.40
2022-12-04T11:54:40.009Z,57.64
2022-12-04T11:57:38.103Z,58.65
2022-12-04T12:00:22.934Z,60.34
2022-12-04T12:03:18.754Z,60.77
2022-12-04T12:06:21.675Z,61.59
2022-12-04T12:09:07.998Z,62.69
2022-12-04T12:11:45.503Z,62.85
2022-12-04T12:14:28.269Z,62.96
2022-12-04T12:17:19.776Z,62.90
2022-12-04T12:20:06.824Z,63.38
2022-12-04T12:22:56.429Z,62.64
2022-12-04T12:25:52.109Z,63.48
2022-12-04T12:28:36.372Z,64.02
2022-12-04T12:31:54.325Z,64.38
2022-12-04T12:34:40.596Z,64.12
2022-12-04T12:37:20.573Z,64.53
2022-12-04T12:40:00.572Z,64.53
2022-12-04T12:42:43.646Z,64.22
2022-12-04T12:45:29.994Z,64.48
2022-12-04T12:48:22.917Z,65.42
2022-12-04T12:51:28.416Z,64.85
2022-12-04T12:53:40.712Z,65.63
2022-12-04T12:56:13.448Z,65.87
2022-12-04T12:58:55.390Z,65.70
2022-12-04T13:01:52.828Z,65.96
2022-12-04T13:04:45.500Z,66.00
2022-12-04T13:07:25.484Z,66.41
2022-12-04T13:10:24.239Z,65.76
2022-12-04T13:13:02.664Z,66.57
2022-12-04T13:16:00.250Z,66.98
2022-12-04T13:18:37.367Z,67.24
2022-12-04T13:21:09.679Z,68.01
2022-12-04T13:24:15.871Z,74.85
2022-12-04T13:27:24.826Z,75.52
2022-12-04T13:30:22.319Z,76.00
2022-12-04T13:33:25.572Z,75.73
2022-12-04T13:36:33.143Z,74.83
2022-12-04T13:39:35.725Z,73.93
2022-12-04T13:42:10.301Z,73.18
2022-12-04T13:44:43.342Z,73.03
2022-12-04T13:47:16.046Z,73.64
2022-12-04T13:49:48.365Z,73.58
2022-12-04T13:52:29.603Z,73.87
2022-12-04T13:55:02.689Z,73.95
2022-12-04T13:57:35.848Z,73.91
2022-12-04T14:00:31.570Z,74.07
2022-12-04T14:03:10.442Z,73.94
2022-12-04T14:05:43.683Z,73.16
2022-12-04T14:08:23.696Z,73.40
2022-12-04T14:11:08.499Z,73.63
2022-12-04T14:13:47.417Z,73.23
2022-12-04T14:16:36.524Z,73.50
2022-12-04T14:19:08.966Z,74.96
2022-12-04T14:21:44.772Z,75.58
2022-12-04T14:24:20.475Z,75.77
2022-12-04T14:27:11.099Z,75.35
2022-12-04T14:29:37.732Z,75.47
2022-12-04T14:32:19.027Z,74.96
2022-12-04T14:34:51.998Z,75.07
2022-12-04T14:37:32.144Z,75.35
2022-12-04T14:40:07.551Z,74.82
2022-12-04T14:42:40.818Z,75.31
2022-12-04T14:45:32.695Z,74.67
2022-12-04T14:48:31.396Z,74.57
2022-12-04T14:51:20.768Z,74.77
2022-12-04T14:54:31.358Z,74.92
2022-12-04T14:57:29.208Z,74.73
2022-12-04T15:00:01.781Z,74.96
2022-12-04T15:02:43.179Z,74.88
2022-12-04T15:05:22.700Z,74.62
2022-12-04T15:08:01.938Z,74.58
2022-12-04T15:10:54.127Z,74.03
2022-12-04T15:13:32.120Z,73.78
2022-12-04T15:16:21.746Z,73.54
2022-12-04T15:19:01.521Z,73.74
2022-12-04T15:21:41.090Z,73.67
2022-12-04T15:24:22.981Z,73.69
2022-12-04T15:26:55.451Z,73.35
2022-12-04T15:29:29.867Z,72.91
2022-12-04T15:32:06.379Z,72.94
2022-12-04T15:34:48.471Z,72.84
2022-12-04T15:37:32.312Z,72.89
2022-12-04T15:40:11.491Z,72.78
2022-12-04T15:42:43.879Z,72.43
2022-12-04T15:45:26.429Z,72.10
2022-12-04T15:47:58.956Z,72.10
2022-12-04T15:50:31.721Z,71.55
2022-12-04T15:53:08.762Z,71.62
2022-12-04T15:55:50.671Z,71.59
2022-12-04T15:58:34.178Z,71.27
2022-12-04T16:01:10.548Z,71.42
2022-12-04T16:03:52.758Z,71.97
2022-12-04T16:06:31.110Z,71.37
2022-12-04T16:09:26.883Z,70.46
2022-12-04T16:12:06.784Z,70.93
2022-12-04T16:14:39.649Z,71.24
2022-12-04T16:17:12.470Z,70.41
2022-12-04T16:19:44.815Z,70.88
2022-12-04T16:22:21.178Z,70.71
2022-12-04T16:24:54.368Z,70.55
2022-12-04T16:27:27.768Z,70.69
2022-12-04T16:30:00.926Z,70.82
2022-12-04T16:32:35.014Z,70.84
2022-12-04T16:35:08.914Z,70.74
2022-12-04T16:37:41.986Z,70.67
2022-12-04T16:40:15.459Z,69.71
2022-12-04T16:42:48.113Z,70.11
2022-12-04T16:45:28.063Z,69.94
2022-12-04T16:48:00.670Z,70.16
2022-12-04T16:50:33.472Z,69.59
2022-12-04T16:53:05.985Z,69.90
2022-12-04T16:55:40.225Z,71.93
2022-12-04T16:58:11.823Z,73.71
2022-12-04T17:00:47.661Z,73.69
2022-12-04T17:03:30.031Z,72.72
2022-12-04T17:06:02.788Z,70.69
2022-12-04T17:08:35.881Z,71.29
2022-12-04T17:11:08.367Z,69.13
2022-12-04T17:13:40.913Z,69.43
2022-12-04T17:16:15.198Z,69.30
2022-12-04T17:18:46.889Z,69.13
2022-12-04T17:21:19.794Z,68.89
2022-12-04T17:23:52.350Z,68.58
2022-12-04T17:26:24.999Z,69.09
2022-12-04T17:28:57.436Z,68.11
2022-12-04T17:31:30.152Z,68.62
2022-12-04T17:34:02.943Z,67.78
2022-12-04T17:36:35.608Z,67.85
2022-12-04T17:39:08.407Z,68.20
2022-12-04T17:41:41.232Z,68.47
2022-12-04T17:44:14.297Z,68.08
2022-12-04T17:46:47.227Z,67.85
2022-12-04T17:49:19.647Z,67.29
2022-12-04T17:51:52.138Z,66.68
2022-12-04T17:54:25.763Z,66.36
2022-12-04T17:56:58.412Z,67.69
2022-12-04T17:59:30.937Z,66.65
2022-12-04T18:02:03.476Z,66.81
2022-12-04T18:04:36.139Z,65.30
2022-12-04T18:07:08.884Z,66.37
2022-12-04T18:09:41.800Z,65.70
2022-12-04T18:12:15.037Z,65.55
2022-12-04T18:14:47.434Z,64.96
2022-12-04T18:17:21.013Z,65.25
2022-12-04T18:19:53.812Z,64.55
2022-12-04T18:22:27.047Z,64.62
2022-12-04T18:25:00.805Z,65.15
2022-12-04T18:27:36.639Z,65.62
2022-12-04T18:30:10.209Z,64.99
2022-12-04T18:32:42.720Z,65.30
2022-12-04T18:35:15.256Z,65.51
2022-12-04T18:37:47.812Z,67.68
2022-12-04T18:40:20.411Z,66.82
2022-12-04T18:42:52.954Z,67.03
2022-12-04T18:45:26.095Z,66.88
2022-12-04T18:47:58.665Z,65.73
2022-12-04T18:50:31.588Z,66.14
2022-12-04T18:53:04.063Z,66.31
2022-12-04T18:55:38.364Z,66.84
2022-12-04T18:58:10.640Z,66.54
2022-12-04T19:00:43.098Z,67.20
2022-12-04T19:03:15.890Z,67.31
2022-12-04T19:05:51.896Z,67.74
2022-12-04T19:08:28.467Z,67.05
2022-12-04T19:11:00.780Z,67.25
2022-12-04T19:13:34.430Z,67.46
2022-12-04T19:16:08.505Z,67.00
2022-12-04T19:18:42.407Z,67.40
2022-12-04T19:21:16.612Z,68.10
2022-12-04T19:23:56.950Z,67.09
2022-12-04T19:26:30.680Z,67.51
2022-12-04T19:29:03.862Z,68.61
2022-12-04T19:31:37.993Z,67.44
2022-12-04T19:34:10.780Z,68.59
2022-12-04T19:36:45.214Z,67.64
2022-12-04T19:39:17.906Z,68.02
2022-12-04T19:41:50.213Z,68.67
2022-12-04T19:46:56.247Z,68.00
2022-12-04T19:49:28.677Z,68.10
2022-12-04T19:52:01.379Z,67.66
2022-12-04T19:54:34.043Z,68.77
2022-12-04T19:57:09.692Z,67.73
2022-12-04T19:59:46.229Z,68.48
2022-12-04T20:02:16.736Z,67.70
2022-12-04T20:04:49.227Z,68.27
2022-12-04T20:07:21.691Z,69.43
2022-12-04T20:09:56.154Z,68.74
2022-12-04T20:12:29.565Z,68.39
2022-12-04T20:15:02.333Z,68.23
2022-12-04T20:17:34.975Z,68.01
2022-12-04T20:20:09.258Z,68.79
2022-12-04T20:22:41.925Z,68.56
2022-12-04T20:25:14.398Z,68.24
2022-12-04T20:27:48.150Z,67.99
2022-12-04T20:30:20.894Z,68.62
2022-12-04T20:32:53.270Z,68.33
2022-12-04T20:35:25.956Z,68.20
2022-12-04T20:37:58.501Z,68.73
2022-12-04T20:40:30.947Z,68.83
2022-12-04T20:43:03.331Z,69.40
2022-12-04T20:45:35.896Z,69.23
2022-12-04T20:48:08.758Z,68.24
2022-12-04T20:50:42.947Z,69.16
2022-12-04T20:53:14.787Z,69.36
2022-12-04T20:55:57.064Z,69.38
2022-12-04T20:58:29.842Z,69.56
2022-12-04T21:01:08.538Z,69.13
2022-12-04T21:03:41.142Z,69.45
2022-12-04T21:06:29.615Z,68.79
2022-12-04T21:09:01.760Z,69.17
2022-12-04T21:11:40.917Z,69.69
2022-12-04T21:14:40.335Z,69.28
2022-12-04T21:17:18.737Z,69.71
2022-12-04T21:19:52.776Z,69.33
2022-12-04T21:22:25.114Z,69.34
2022-12-04T21:24:57.719Z,68.65
2022-12-04T21:27:30.945Z,68.52
2022-12-04T21:30:04.343Z,68.63
2022-12-04T21:32:36.995Z,69.16
2022-12-04T21:35:10.096Z,69.19
2022-12-04T21:37:42.892Z,68.97
2022-12-04T21:40:15.876Z,69.17
2022-12-04T21:42:48.206Z,69.81
2022-12-04T21:45:20.839Z,69.79
2022-12-04T21:47:53.546Z,69.34
2022-12-04T21:50:26.544Z,69.31
2022-12-04T21:52:58.952Z,69.36
2022-12-04T21:55:31.376Z,69.79
2022-12-04T21:58:04.993Z,70.02
2022-12-04T22:00:38.249Z,69.12
2022-12-04T22:03:12.561Z,69.76
2022-12-04T22:05:45.004Z,69.67
2022-12-04T22:08:17.475Z,70.10
2022-12-04T22:10:49.946Z,69.82
2022-12-04T22:13:22.627Z,69.80
2022-12-04T22:15:55.178Z,70.44
2022-12-04T22:18:29.139Z,69.95
2022-12-04T22:21:03.875Z,70.03
2022-12-04T22:23:36.540Z,70.08
2022-12-04T22:26:16.023Z,70.92
2022-12-04T22:28:48.469Z,70.29
2022-12-04T22:31:23.063Z,70.17
2022-12-04T22:33:58.139Z,70.44
2022-12-04T22:36:32.891Z,70.09
2022-12-04T22:39:09.727Z,69.79
2022-12-04T22:41:39.847Z,70.26
2022-12-04T22:44:13.422Z,70.37
2022-12-04T22:46:46.041Z,69.97
2022-12-04T22:49:18.615Z,70.37
2022-12-04T22:51:52.250Z,70.89
2022-12-04T22:54:24.683Z,70.98
2022-12-04T22:56:57.245Z,71.06
2022-12-04T22:59:29.947Z,70.88
2022-12-04T23:02:02.563Z,71.11
2022-12-04T23:04:35.304Z,71.10
2022-12-04T23:07:07.934Z,70.98
2022-12-04T23:09:40.796Z,70.90
2022-12-04T23:12:15.188Z,70.91
2022-12-04T23:14:47.649Z,70.92
2022-12-04T23:17:20.627Z,71.30
2022-12-04T23:19:53.651Z,71.15
2022-12-04T23:22:26.365Z,71.07
2022-12-04T23:24:59.005Z,71.41
2022-12-04T23:27:33.417Z,71.44
2022-12-04T23:30:07.063Z,71.93
2022-12-04T23:32:39.807Z,71.89
2022-12-04T23:35:12.443Z,71.00
2022-12-04T23:37:44.802Z,70.86
2022-12-04T23:40:17.388Z,71.33
2022-12-04T23:42:49.899Z,71.79
2022-12-04T23:45:22.325Z,71.36
2022-12-04T23:47:56.004Z,71.52
2022-12-04T23:50:28.176Z,71.33
2022-12-04T23:53:00.524Z,71.43
2022-12-04T23:55:34.765Z,71.18
2022-12-04T23:58:07.843Z,71.38
